Time Latitude Longitude Accuracy (66% radius in meters) Altitude (meters) Speed (km/hour) Bearing (degrees) Battery (%) GPS flag
07:13:40 57.204227 60.117795 3.2160000801086 317.69836425781 1.5 137.30000305176 88 1 delete
07:13:37 57.204285 60.117696 4.2880001068115 316.35864257812 1.4500000476837 118.40000152588 88 1 delete
07:13:32 57.204370 60.117559 3.2160000801086 315.9130859375 1.3799999952316 130.39999389648 88 1 delete
07:13:29 57.204415 60.117492 4.2880001068115 317.60021972656 1.3400000333786 140.5 88 1 delete
07:13:27 57.204449 60.117458 4.2880001068115 317.55059814453 1.2999999523163 150.30000305176 88 1 delete
07:13:22 57.204547 60.117406 6.4320001602173 320.05334472656 3.0499999523163 174.80000305176 88 1 delete
07:13:19 57.204670 60.117402 5.3600001335144 319.12390136719 2.6300001144409 177 88 1 delete
07:13:16 57.204764 60.117400 5.3600001335144 317.75988769531 2.1600000858307 176.30000305176 88 1 delete
07:13:12 57.204877 60.117434 4.2880001068115 318.24523925781 1.9199999570847 192.69999694824 88 1 delete
07:13:08 57.204979 60.117493 4.2880001068115 317.05841064453 2.25 194 88 1 delete
07:13:04 57.205073 60.117544 4.2880001068115 318.97924804688 2.0499999523163 201.69999694824 88 1 delete
07:12:58 57.205145 60.117648 3.2160000801086 319.84869384766 0.25 336.10000610352 88 1 delete
07:12:56 57.205152 60.117627 3.2160000801086 320.48352050781 1.7699999809265 103.09999847412 88 1 delete
07:12:51 57.205171 60.117441 3.2160000801086 320.70959472656 1.6900000572205 101.59999847412 88 1 delete
07:12:48 57.205172 60.117355 3.2160000801086 320.53698730469 1.4099999666214 69.300003051758 88 1 delete
07:12:44 57.205119 60.117287 4.2880001068115 321.45227050781 1.4800000190735 13.89999961853 88 1 delete
07:12:39 57.205018 60.117246 4.2880001068115 320.30834960938 1.3700000047684 20.200000762939 88 1 delete
07:12:37 57.204982 60.117233 3.2160000801086 320.79431152344 1.3400000333786 11.60000038147 88 1 delete
07:12:33 57.204914 60.117226 3.2160000801086 320.71179199219 1.1900000572205 3.4000000953674 88 1 delete
07:12:27 57.204828 60.117154 4.2880001068115 319.48864746094 1.4400000572205 4.4000000953674 88 1 delete
07:12:17 57.204772 60.117046 3.2160000801086 319.00939941406 0.41999998688698 50.700000762939 88 1 delete
07:12:13 57.204751 60.117030 3.2160000801086 319.01000976562 1.9400000572205 45.799999237061 88 1 delete
07:12:07 57.204683 60.116893 3.2160000801086 315.11791992188 2.0799999237061 43.900001525879 88 1 delete
07:12:06 57.204668 60.116867 3.2160000801086 314.73547363281 2.0999999046326 26.5 88 1 delete
07:12:01 57.204609 60.116753 4.2880001068115 314.21026611328 1.6499999761581 45.5 88 1 delete
07:11:56 57.204575 60.116679 3.2160000801086 313.01684570312 0.66000002622604 59 88 1 delete
07:11:51 57.204560 60.116600 4.2880001068115 311.09375 1.710000038147 90.900001525879 88 1 delete
07:11:46 57.204553 60.116524 4.2880001068115 311.18823242188 1.6499999761581 99.300003051758 88 1 delete
07:11:41 57.204550 60.116430 4.2880001068115 309.26037597656 1.7200000286102 87.099998474121 88 1 delete
07:11:35 57.204551 60.116261 4.2880001068115 309.55645751953 2.0799999237061 97.699996948242 88 1 delete
07:11:28 57.204553 60.116083 4.2880001068115 310.07995605469 1.4199999570847 98.900001525879 88 1 delete
07:11:25 57.204569 60.116026 4.2880001068115 310.47021484375 1.4900000095367 125.30000305176 88 1 delete
07:11:20 57.204605 60.115933 3.2160000801086 309.66302490234 1.5800000429153 88.400001525879 88 1 delete
07:11:14 57.204611 60.115797 4.2880001068115 307.81774902344 1.6299999952316 85.400001525879 88 1 delete
07:11:12 57.204611 60.115752 4.2880001068115 308.30871582031 2.0999999046326 97.199996948242 88 1 delete
07:11:07 57.204623 60.115576 4.2880001068115 304.42663574219 2.3800001144409 102 88 1 delete
07:11:04 57.204647 60.115441 4.2880001068115 300.70208740234 2.5899999141693 93.599998474121 88 1 delete
07:11:03 57.204650 60.115399 4.2880001068115 300.77124023438 1.7599999904633 90.400001525879 88 1 delete
07:10:58 57.204669 60.115217 4.2880001068115 299.08020019531 2.1900000572205 95.400001525879 88 1 delete
07:10:54 57.204680 60.115046 4.2880001068115 300.01892089844 1.789999961853 68.900001525879 88 1 delete
07:10:53 57.204675 60.115010 3.2160000801086 299.82843017578 1.7799999713898 74.300003051758 88 1 delete
07:10:47 57.204661 60.114817 4.2880001068115 298.6689453125 1.75 82.5 88 1 delete
07:10:43 57.204658 60.114690 4.2880001068115 299.50500488281 1.6399999856949 92.099998474121 88 1 delete
07:10:41 57.204644 60.114640 4.2880001068115 301.00836181641 1.4700000286102 62.900001525879 88 1 delete
07:10:36 57.204607 60.114480 5.3600001335144 301.65026855469 3.039999961853 87.400001525879 88 1 delete
07:10:33 57.204601 60.114325 3.2160000801086 301.97210693359 1.3899999856949 83.099998474121 88 1 delete
07:10:30 57.204620 60.114289 3.2160000801086 303.17755126953 1.0299999713898 156.69999694824 88 1 delete
07:10:24 57.204715 60.114308 3.2160000801086 302.60791015625 2.4500000476837 177.80000305176 88 1 delete
07:10:20 57.204790 60.114398 3.2160000801086 302.99603271484 1.9400000572205 204.30000305176 88 1 delete
07:10:12 57.204857 60.114444 3.2160000801086 301.88671875 0 0 88 1 delete